createdAt,value
2022-09-21T00:20:32.417Z,36.90
2022-09-21T00:30:52.763Z,38.60
2022-09-21T00:41:01.997Z,39.80
2022-09-21T00:51:11.540Z,37.70
2022-09-21T01:13:01.242Z,34.90
2022-09-21T01:24:01.195Z,29.50
2022-09-21T01:34:33.013Z,27.30
2022-09-21T01:44:45.012Z,26.70
2022-09-21T01:54:57.766Z,26.20
2022-09-21T02:05:11.496Z,25.70
2022-09-21T02:15:25.739Z,25.40
2022-09-21T02:25:52.563Z,25.10
2022-09-21T02:36:16.872Z,24.80
2022-09-21T02:46:34.834Z,24.60
2022-09-21T02:56:55.145Z,24.50
2022-09-21T03:07:02.797Z,24.30
2022-09-21T03:17:18.836Z,24.30
2022-09-21T03:27:29.471Z,24.20
2022-09-21T03:37:41.288Z,24.10
2022-09-21T03:47:57.544Z,24.10
2022-09-21T03:58:10.258Z,24.40
2022-09-21T04:08:32.379Z,24.50
2022-09-21T04:18:42.013Z,24.60
2022-09-21T04:28:53.521Z,24.50
2022-09-21T04:39:25.638Z,24.40
2022-09-21T04:49:37.904Z,24.40
2022-09-21T05:00:05.000Z,24.40
2022-09-21T05:10:21.011Z,24.40
2022-09-21T05:20:33.291Z,24.30
2022-09-21T05:31:07.201Z,24.40
2022-09-21T05:41:54.735Z,24.40
2022-09-21T06:04:14.668Z,24.30
2022-09-21T06:14:42.872Z,24.30
2022-09-21T06:24:55.225Z,24.20
2022-09-21T06:35:06.427Z,24.10
2022-09-21T06:45:36.162Z,24.00
2022-09-21T06:55:56.824Z,24.00
2022-09-21T07:06:22.844Z,23.90
2022-09-21T07:16:45.119Z,23.90
2022-09-21T07:27:28.535Z,23.90
2022-09-21T07:37:52.111Z,23.90
2022-09-21T07:48:07.390Z,23.80
2022-09-21T07:58:44.675Z,23.80
2022-09-21T08:09:49.860Z,23.80
2022-09-21T08:20:50.807Z,23.80
2022-09-21T08:31:06.384Z,23.80
2022-09-21T08:41:27.323Z,23.80
2022-09-21T09:04:20.274Z,23.80
2022-09-21T09:15:28.067Z,23.80
2022-09-21T09:26:56.583Z,23.70
2022-09-21T09:37:51.534Z,23.60
2022-09-21T09:48:39.984Z,23.60
2022-09-21T09:59:53.984Z,23.50
2022-09-21T10:10:53.699Z,23.50
2022-09-21T10:21:14.123Z,23.50
2022-09-21T10:32:28.464Z,23.50
2022-09-21T10:54:33.546Z,23.50
2022-09-21T11:05:07.652Z,23.50
2022-09-21T11:15:45.151Z,23.50
2022-09-21T11:26:13.929Z,23.50
2022-09-21T11:36:48.945Z,23.50
2022-09-21T11:47:25.852Z,23.50
2022-09-21T11:57:45.221Z,23.40
2022-09-21T12:08:37.883Z,23.40
2022-09-21T12:19:28.400Z,23.40
2022-09-21T12:29:55.308Z,23.40
2022-09-21T12:40:23.920Z,23.30
2022-09-21T12:50:42.952Z,23.30
2022-09-21T13:01:26.996Z,23.30
2022-09-21T13:12:02.263Z,23.20
2022-09-21T13:22:25.441Z,23.20
2022-09-21T13:33:03.597Z,23.20
2022-09-21T13:43:52.078Z,23.20
2022-09-21T13:54:05.372Z,23.20
2022-09-21T14:04:30.867Z,23.10
2022-09-21T14:14:47.160Z,23.20
2022-09-21T14:25:14.644Z,23.10
2022-09-21T14:35:55.382Z,23.20
2022-09-21T14:46:34.608Z,23.40
2022-09-21T14:56:56.348Z,23.40
2022-09-21T15:07:36.262Z,23.50
2022-09-21T15:17:59.331Z,23.50
2022-09-21T15:28:07.324Z,23.50
2022-09-21T15:48:45.425Z,23.50
2022-09-21T15:58:54.306Z,23.40
2022-09-21T16:09:23.997Z,23.10
2022-09-21T16:19:45.630Z,23.20
2022-09-21T16:29:59.840Z,23.50
2022-09-21T16:40:12.376Z,23.50
2022-09-21T16:50:25.274Z,23.60
2022-09-21T17:00:42.442Z,23.60
2022-09-21T17:10:53.348Z,23.60
2022-09-21T17:21:05.345Z,23.70
2022-09-21T17:31:17.599Z,23.70
2022-09-21T17:41:41.349Z,23.70
2022-09-21T17:52:07.310Z,23.70
2022-09-21T18:02:27.340Z,23.70
2022-09-21T18:12:53.926Z,23.70
2022-09-21T18:23:17.919Z,23.70
2022-09-21T18:33:36.832Z,23.70
2022-09-21T18:44:01.651Z,23.70
2022-09-21T18:54:23.350Z,23.70
2022-09-21T19:04:31.481Z,23.70
2022-09-21T19:14:58.758Z,23.70
2022-09-21T19:25:21.428Z,23.80
2022-09-21T19:35:34.916Z,24.00
2022-09-21T19:45:51.710Z,23.80
2022-09-21T19:56:20.984Z,23.60
2022-09-21T20:06:35.231Z,23.50
2022-09-21T20:16:50.056Z,23.50
2022-09-21T20:26:58.474Z,23.60
2022-09-21T20:37:12.699Z,23.40
2022-09-21T20:47:21.029Z,23.40
2022-09-21T20:57:30.020Z,23.50
2022-09-21T21:07:58.972Z,23.50
2022-09-21T21:18:08.371Z,23.80
2022-09-21T21:28:16.198Z,24.10
2022-09-21T21:38:24.947Z,24.50
2022-09-21T21:48:31.980Z,24.70
2022-09-21T21:58:41.322Z,24.90
2022-09-21T22:08:48.441Z,25.00
2022-09-21T22:18:58.746Z,24.60
2022-09-21T22:29:08.735Z,24.50
2022-09-21T22:39:17.757Z,24.50
2022-09-21T22:49:25.487Z,24.60
2022-09-21T22:59:34.386Z,25.10
2022-09-21T23:09:41.612Z,25.50
2022-09-21T23:19:50.996Z,25.70
2022-09-21T23:29:58.611Z,25.90
2022-09-21T23:40:07.954Z,26.30
2022-09-21T23:50:15.559Z,35.90
